createdAt,value
2022-11-25T00:00:51.141Z,-4.34
2022-11-25T00:03:17.883Z,-4.35
2022-11-25T00:05:44.583Z,-4.39
2022-11-25T00:08:11.969Z,-4.42
2022-11-25T00:10:38.539Z,-4.41
2022-11-25T00:13:05.110Z,-4.49
2022-11-25T00:15:33.279Z,-4.49
2022-11-25T00:17:59.823Z,-4.45
2022-11-25T00:20:26.373Z,-4.51
2022-11-25T00:22:53.047Z,-4.44
2022-11-25T00:25:22.143Z,-4.38
2022-11-25T00:27:52.731Z,-4.49
2022-11-25T00:30:19.370Z,-4.40
2022-11-25T00:32:46.237Z,-4.60
2022-11-25T00:35:13.085Z,-4.38
2022-11-25T00:37:42.273Z,-4.39
2022-11-25T00:40:09.436Z,-4.82
2022-11-25T00:42:54.271Z,-4.34
2022-11-25T00:45:21.007Z,-4.32
2022-11-25T00:47:49.943Z,-4.42
2022-11-25T00:50:20.198Z,-4.29
2022-11-25T00:52:46.757Z,-4.33
2022-11-25T00:55:13.375Z,-4.32
2022-11-25T00:57:39.986Z,-4.36
2022-11-25T01:00:07.377Z,-4.32
2022-11-25T01:02:33.984Z,-4.34
2022-11-25T01:05:00.688Z,-4.29
2022-11-25T01:07:27.486Z,-4.30
2022-11-25T01:09:54.133Z,-4.28
2022-11-25T01:12:22.275Z,-4.28
2022-11-25T01:14:48.838Z,-4.44
2022-11-25T01:17:15.653Z,-4.24
2022-11-25T01:19:44.113Z,-4.25
2022-11-25T01:22:10.774Z,-4.30
2022-11-25T01:24:39.595Z,-4.21
2022-11-25T01:27:06.328Z,-4.21
2022-11-25T01:29:32.958Z,-4.24
2022-11-25T01:31:59.579Z,-4.22
2022-11-25T01:34:28.433Z,-4.22
2022-11-25T01:36:55.004Z,-4.22
2022-11-25T01:39:28.653Z,-4.21
2022-11-25T01:41:58.621Z,-4.30
2022-11-25T01:44:29.257Z,-4.26
2022-11-25T01:47:23.633Z,-4.24
2022-11-25T01:50:01.592Z,-4.26
2022-11-25T01:52:32.087Z,-4.28
2022-11-25T01:55:03.658Z,-4.30
2022-11-25T01:57:44.446Z,-4.43
2022-11-25T02:00:12.129Z,-4.26
2022-11-25T02:02:38.783Z,-4.28
2022-11-25T02:05:13.282Z,-4.24
2022-11-25T02:07:43.516Z,-4.29
2022-11-25T02:10:18.429Z,-4.26
2022-11-25T02:12:46.724Z,-4.26
2022-11-25T02:15:15.333Z,-4.31
2022-11-25T02:17:43.069Z,-4.24
2022-11-25T02:20:13.269Z,-4.28
2022-11-25T02:22:47.875Z,-4.28
2022-11-25T02:25:55.566Z,-4.23
2022-11-25T02:28:27.260Z,-4.23
2022-11-25T02:30:54.371Z,-4.28
2022-11-25T02:33:21.069Z,-4.25
2022-11-25T02:35:58.024Z,-4.23
2022-11-25T02:38:44.182Z,-4.24
2022-11-25T02:41:13.610Z,-4.23
2022-11-25T02:43:43.395Z,-4.25
2022-11-25T02:46:21.939Z,-4.32
2022-11-25T02:49:08.395Z,-4.46
2022-11-25T02:51:39.072Z,-4.34
2022-11-25T02:54:06.327Z,-4.37
2022-11-25T02:56:34.619Z,-4.38
2022-11-25T02:59:02.499Z,-4.43
2022-11-25T03:01:31.277Z,-4.60
2022-11-25T03:03:58.566Z,-4.41
2022-11-25T03:06:25.506Z,-4.29
2022-11-25T03:08:52.088Z,-4.31
2022-11-25T03:11:18.648Z,-4.25
2022-11-25T03:13:45.336Z,-4.26
2022-11-25T03:16:12.054Z,-4.24
2022-11-25T03:18:38.938Z,-4.24
2022-11-25T03:21:05.867Z,-4.25
2022-11-25T03:23:32.433Z,-4.26
2022-11-25T03:25:59.647Z,-4.22
2022-11-25T03:28:26.546Z,-4.22
2022-11-25T03:30:53.121Z,-4.24
2022-11-25T03:33:19.770Z,-4.17
2022-11-25T03:35:48.497Z,-4.18
2022-11-25T03:38:15.104Z,-4.19
2022-11-25T03:40:41.708Z,-4.19
2022-11-25T03:43:08.336Z,-4.16
2022-11-25T03:45:35.014Z,-4.16
2022-11-25T21:53:37.034Z,-6.64
2022-11-25T21:56:04.462Z,-6.47
2022-11-25T21:58:31.337Z,-6.54
2022-11-25T22:01:01.050Z,-6.48
2022-11-25T22:03:30.992Z,-6.26
2022-11-25T22:05:57.650Z,-6.12
2022-11-25T22:08:24.279Z,-6.05
2022-11-25T22:10:53.251Z,-6.05
2022-11-25T22:13:23.710Z,-5.99
2022-11-25T22:15:56.022Z,-5.98
2022-11-25T22:18:29.937Z,-5.89
2022-11-25T22:20:56.987Z,-5.87
2022-11-25T22:23:23.798Z,-5.89
2022-11-25T22:25:51.670Z,-5.84
2022-11-25T22:28:24.572Z,-5.79
2022-11-25T22:30:54.636Z,-5.87
2022-11-25T22:33:36.816Z,-6.05
2022-11-25T22:36:04.632Z,-5.92
2022-11-25T22:38:31.378Z,-6.02
2022-11-25T22:41:03.448Z,-5.85
2022-11-25T22:43:34.661Z,-6.03
2022-11-25T22:46:02.731Z,-5.94
2022-11-25T22:48:37.162Z,-5.95
2022-11-25T22:51:05.560Z,-5.88
2022-11-25T22:53:33.208Z,-5.88
2022-11-25T22:56:00.894Z,-5.97
2022-11-25T22:58:28.260Z,-5.91
2022-11-25T23:00:56.911Z,-5.94
2022-11-25T23:03:27.600Z,-6.01
2022-11-25T23:05:56.658Z,-5.92
2022-11-25T23:08:31.056Z,-5.93
2022-11-25T23:10:58.176Z,-5.94
2022-11-25T23:13:25.161Z,-5.94
2022-11-25T23:15:54.949Z,-6.00
2022-11-25T23:18:46.419Z,-6.03
2022-11-25T23:21:20.263Z,-6.20
2022-11-25T23:23:47.029Z,-6.06
2022-11-25T23:26:14.666Z,-6.06
2022-11-25T23:28:41.627Z,-6.11
2022-11-25T23:31:13.413Z,-6.16
2022-11-25T23:33:44.092Z,-6.15
2022-11-25T23:36:19.828Z,-6.15
2022-11-25T23:38:56.105Z,-6.14
2022-11-25T23:41:24.136Z,-6.11
2022-11-25T23:43:51.059Z,-6.13
2022-11-25T23:46:23.164Z,-6.09
2022-11-25T23:48:56.526Z,-6.13
2022-11-25T23:51:27.686Z,-6.07
2022-11-25T23:53:55.658Z,-6.12
2022-11-25T23:56:23.166Z,-6.12
2022-11-25T23:58:51.735Z,-6.11
